Terminal Aerodrome Forecast
Issued by NWS Duluth, MN

Home | Current Version | Previous Version | Text Only | Print | Product List | Glossary On
Versions: 1 2 3 4 5 6 7 8 9 10 11 12 13 14 15 16 17
000
FTUS43 KDLH 241100 RRA
TAFDLH
TAF
KDLH 241140Z 2412/2512 11008KT P6SM OVC080
     FM241500 09009KT P6SM -RA BKN030 OVC040
     FM241800 06012KT P6SM -RA OVC025
     FM250200 06011KT 2SM -DZ BR OVC007=

USA.gov is the U.S. government's official web portal to all federal, state and local government web resources and services.